sensor_id;sensor_type;location;lat;lon;timestamp;pressure;altitude;pressure_sealevel;temperature;humidity
60479;BME280;46321;48.398;11.754;2023-04-25T00:00:56;95964.28;;;6.48;69.66
60479;BME280;46321;48.398;11.754;2023-04-25T00:03:22;95961.50;;;6.50;69.34
60479;BME280;46321;48.398;11.754;2023-04-25T00:05:50;95963.81;;;6.53;69.89
60479;BME280;46321;48.398;11.754;2023-04-25T00:08:16;95968.22;;;6.52;69.90
60479;BME280;46321;48.398;11.754;2023-04-25T00:10:42;95953.94;;;6.55;69.63
60479;BME280;46321;48.398;11.754;2023-04-25T00:13:07;95957.72;;;6.52;69.65
60479;BME280;46321;48.398;11.754;2023-04-25T00:15:33;95969.06;;;6.53;69.83
60479;BME280;46321;48.398;11.754;2023-04-25T00:17:58;95964.47;;;6.55;69.44
60479;BME280;46321;48.398;11.754;2023-04-25T00:20:23;95954.78;;;6.56;69.41
60479;BME280;46321;48.398;11.754;2023-04-25T00:22:50;95957.72;;;6.61;69.05
60479;BME280;46321;48.398;11.754;2023-04-25T00:25:15;95957.56;;;6.62;69.52
60479;BME280;46321;48.398;11.754;2023-04-25T00:27:41;95956.75;;;6.62;69.30
60479;BME280;46321;48.398;11.754;2023-04-25T00:30:07;95963.66;;;6.63;69.36
60479;BME280;46321;48.398;11.754;2023-04-25T00:32:32;95966.13;;;6.64;69.59
60479;BME280;46321;48.398;11.754;2023-04-25T00:34:58;95954.94;;;6.62;69.89
60479;BME280;46321;48.398;11.754;2023-04-25T00:37:23;95953.47;;;6.60;70.37
60479;BME280;46321;48.398;11.754;2023-04-25T00:39:48;95959.53;;;6.60;69.47
60479;BME280;46321;48.398;11.754;2023-04-25T00:42:14;95958.72;;;6.60;69.90
60479;BME280;46321;48.398;11.754;2023-04-25T00:44:40;95966.13;;;6.56;70.54
60479;BME280;46321;48.398;11.754;2023-04-25T00:47:06;95960.34;;;6.61;70.28
60479;BME280;46321;48.398;11.754;2023-04-25T00:49:31;95964.28;;;6.57;70.87
60479;BME280;46321;48.398;11.754;2023-04-25T00:51:57;95964.16;;;6.58;71.13
60479;BME280;46321;48.398;11.754;2023-04-25T00:54:22;95954.78;;;6.64;71.08
60479;BME280;46321;48.398;11.754;2023-04-25T00:56:48;95960.69;;;6.66;70.53
60479;BME280;46321;48.398;11.754;2023-04-25T00:59:14;95954.78;;;6.64;71.11
60479;BME280;46321;48.398;11.754;2023-04-25T01:01:40;95949.69;;;6.54;71.81
60479;BME280;46321;48.398;11.754;2023-04-25T01:04:06;95952.63;;;6.51;71.29
60479;BME280;46321;48.398;11.754;2023-04-25T01:06:32;95951.81;;;6.59;71.09
60479;BME280;46321;48.398;11.754;2023-04-25T01:08:58;95951.47;;;6.62;71.12
60479;BME280;46321;48.398;11.754;2023-04-25T01:11:24;95948.53;;;6.65;71.43
60479;BME280;46321;48.398;11.754;2023-04-25T01:13:50;95948.19;;;6.68;71.17
60479;BME280;46321;48.398;11.754;2023-04-25T01:16:15;95942.78;;;6.70;70.95
60479;BME280;46321;48.398;11.754;2023-04-25T01:18:41;95951.16;;;6.65;71.16
60479;BME280;46321;48.398;11.754;2023-04-25T01:21:11;95951.97;;;6.66;71.32
60479;BME280;46321;48.398;11.754;2023-04-25T01:23:39;95947.06;;;6.62;71.58
60479;BME280;46321;48.398;11.754;2023-04-25T01:26:06;95946.88;;;6.64;71.21
60479;BME280;46321;48.398;11.754;2023-04-25T01:28:33;95952.97;;;6.64;71.49
60479;BME280;46321;48.398;11.754;2023-04-25T01:30:59;95945.56;;;6.60;71.19
60479;BME280;46321;48.398;11.754;2023-04-25T01:33:24;95947.19;;;6.61;71.19
60479;BME280;46321;48.398;11.754;2023-04-25T01:35:50;95953.28;;;6.61;71.64
60479;BME280;46321;48.398;11.754;2023-04-25T01:38:15;95944.91;;;6.58;71.85
60479;BME280;46321;48.398;11.754;2023-04-25T01:40:41;95947.19;;;6.52;72.15
60479;BME280;46321;48.398;11.754;2023-04-25T01:43:07;95940.13;;;6.53;72.23
60479;BME280;46321;48.398;11.754;2023-04-25T01:45:36;95936.84;;;6.59;72.09
60479;BME280;46321;48.398;11.754;2023-04-25T01:48:04;95941.78;;;6.62;72.20
60479;BME280;46321;48.398;11.754;2023-04-25T01:50:30;95938.50;;;6.60;72.08
60479;BME280;46321;48.398;11.754;2023-04-25T01:52:56;95938.00;;;6.57;72.25
60479;BME280;46321;48.398;11.754;2023-04-25T01:55:21;95933.75;;;6.56;72.59
60479;BME280;46321;48.398;11.754;2023-04-25T01:57:46;95927.81;;;6.53;72.80
60479;BME280;46321;48.398;11.754;2023-04-25T02:00:12;95927.31;;;6.50;72.66
60479;BME280;46321;48.398;11.754;2023-04-25T02:02:37;95923.72;;;6.43;73.26
60479;BME280;46321;48.398;11.754;2023-04-25T02:05:03;95914.00;;;6.35;73.25
60479;BME280;46321;48.398;11.754;2023-04-25T02:07:28;95919.06;;;6.36;73.22
60479;BME280;46321;48.398;11.754;2023-04-25T02:09:53;95925.66;;;6.32;73.81
60479;BME280;46321;48.398;11.754;2023-04-25T02:12:19;95929.28;;;6.31;73.18
60479;BME280;46321;48.398;11.754;2023-04-25T02:14:44;95922.84;;;6.25;73.56
60479;BME280;46321;48.398;11.754;2023-04-25T02:17:09;95927.91;;;6.18;73.51
60479;BME280;46321;48.398;11.754;2023-04-25T02:19:35;95922.00;;;6.16;73.95
60479;BME280;46321;48.398;11.754;2023-04-25T02:22:00;95915.13;;;6.15;73.00
60479;BME280;46321;48.398;11.754;2023-04-25T02:24:26;95926.13;;;6.19;73.14
60479;BME280;46321;48.398;11.754;2023-04-25T02:26:53;95929.56;;;6.11;73.94
60479;BME280;46321;48.398;11.754;2023-04-25T02:29:18;95932.19;;;6.11;74.06
60479;BME280;46321;48.398;11.754;2023-04-25T02:31:43;95920.84;;;6.11;74.21
60479;BME280;46321;48.398;11.754;2023-04-25T02:34:08;95906.41;;;6.15;74.46
60479;BME280;46321;48.398;11.754;2023-04-25T02:36:34;95908.72;;;6.18;74.34
60479;BME280;46321;48.398;11.754;2023-04-25T02:39:00;95922.03;;;6.25;74.40
60479;BME280;46321;48.398;11.754;2023-04-25T02:41:26;95913.16;;;6.17;74.61
60479;BME280;46321;48.398;11.754;2023-04-25T02:43:51;95923.50;;;6.19;74.50
60479;BME280;46321;48.398;11.754;2023-04-25T02:46:17;95917.75;;;6.24;74.13
60479;BME280;46321;48.398;11.754;2023-04-25T02:48:42;95919.91;;;6.20;74.39
60479;BME280;46321;48.398;11.754;2023-04-25T02:51:07;95915.28;;;6.22;74.51
60479;BME280;46321;48.398;11.754;2023-04-25T02:53:32;95922.19;;;6.23;74.38
60479;BME280;46321;48.398;11.754;2023-04-25T02:55:58;95912.81;;;6.21;74.24
60479;BME280;46321;48.398;11.754;2023-04-25T02:58:24;95914.63;;;6.20;74.09
60479;BME280;46321;48.398;11.754;2023-04-25T03:00:49;95914.63;;;6.20;74.06
60479;BME280;46321;48.398;11.754;2023-04-25T03:03:14;95911.50;;;6.16;74.90
60479;BME280;46321;48.398;11.754;2023-04-25T03:05:43;95910.03;;;6.22;74.72
60479;BME280;46321;48.398;11.754;2023-04-25T03:08:08;95917.28;;;6.20;75.23
60479;BME280;46321;48.398;11.754;2023-04-25T03:10:33;95911.19;;;6.20;75.43
60479;BME280;46321;48.398;11.754;2023-04-25T03:12:58;95899.66;;;6.21;75.40
60479;BME280;46321;48.398;11.754;2023-04-25T03:15:24;95916.78;;;6.25;75.03
60479;BME280;46321;48.398;11.754;2023-04-25T03:17:49;95904.97;;;6.29;75.00
60479;BME280;46321;48.398;11.754;2023-04-25T03:20:14;95897.22;;;6.27;75.46
60479;BME280;46321;48.398;11.754;2023-04-25T03:22:40;95890.50;;;6.33;75.01
60479;BME280;46321;48.398;11.754;2023-04-25T03:25:05;95886.88;;;6.34;74.78
60479;BME280;46321;48.398;11.754;2023-04-25T03:27:30;95894.78;;;6.43;74.82
60479;BME280;46321;48.398;11.754;2023-04-25T03:29:56;95906.63;;;6.47;74.87
60479;BME280;46321;48.398;11.754;2023-04-25T03:32:21;95899.56;;;6.47;75.08
60479;BME280;46321;48.398;11.754;2023-04-25T03:34:46;95896.75;;;6.40;75.12
60479;BME280;46321;48.398;11.754;2023-04-25T03:37:12;95896.41;;;6.52;74.67
60479;BME280;46321;48.398;11.754;2023-04-25T03:39:37;95898.56;;;6.57;74.92
60479;BME280;46321;48.398;11.754;2023-04-25T03:42:03;95892.16;;;6.51;75.10
60479;BME280;46321;48.398;11.754;2023-04-25T03:44:28;95894.44;;;6.46;75.75
60479;BME280;46321;48.398;11.754;2023-04-25T03:46:54;95894.78;;;6.51;75.80
60479;BME280;46321;48.398;11.754;2023-04-25T03:49:19;95884.28;;;6.43;76.03
60479;BME280;46321;48.398;11.754;2023-04-25T03:51:44;95884.28;;;6.43;75.87
60479;BME280;46321;48.398;11.754;2023-04-25T03:54:09;95870.47;;;6.49;75.68
60479;BME280;46321;48.398;11.754;2023-04-25T03:56:35;95880.50;;;6.53;75.36
60479;BME280;46321;48.398;11.754;2023-04-25T03:59:00;95878.19;;;6.42;75.89
60479;BME280;46321;48.398;11.754;2023-04-25T04:01:25;95888.22;;;6.38;76.03
60479;BME280;46321;48.398;11.754;2023-04-25T04:03:51;95883.25;;;6.44;76.17
60479;BME280;46321;48.398;11.754;2023-04-25T04:06:16;95887.56;;;6.45;75.90
60479;BME280;46321;48.398;11.754;2023-04-25T04:08:41;95885.91;;;6.44;76.01
60479;BME280;46321;48.398;11.754;2023-04-25T04:11:07;95893.59;;;6.45;76.03
60479;BME280;46321;48.398;11.754;2023-04-25T04:13:32;95886.72;;;6.44;76.46
60479;BME280;46321;48.398;11.754;2023-04-25T04:15:57;95889.19;;;6.46;76.28
60479;BME280;46321;48.398;11.754;2023-04-25T04:18:23;95893.78;;;6.52;76.22
60479;BME280;46321;48.398;11.754;2023-04-25T04:20:48;95890.50;;;6.50;76.37
60479;BME280;46321;48.398;11.754;2023-04-25T04:23:13;95886.72;;;6.44;76.30
60479;BME280;46321;48.398;11.754;2023-04-25T04:25:39;95882.13;;;6.38;76.06
60479;BME280;46321;48.398;11.754;2023-04-25T04:28:05;95889.69;;;6.49;76.03
60479;BME280;46321;48.398;11.754;2023-04-25T04:30:31;95888.53;;;6.52;75.86
60479;BME280;46321;48.398;11.754;2023-04-25T04:32:58;95897.75;;;6.56;75.28
60479;BME280;46321;48.398;11.754;2023-04-25T04:35:24;95894.78;;;6.59;75.79
60479;BME280;46321;48.398;11.754;2023-04-25T04:37:50;95896.91;;;6.64;75.77
60479;BME280;46321;48.398;11.754;2023-04-25T04:40:15;95898.72;;;6.72;75.98
60479;BME280;46321;48.398;11.754;2023-04-25T04:42:42;95897.22;;;6.78;75.31
60479;BME280;46321;48.398;11.754;2023-04-25T04:45:08;95896.59;;;6.67;75.78
60479;BME280;46321;48.398;11.754;2023-04-25T04:47:33;95900.34;;;6.73;75.48
60479;BME280;46321;48.398;11.754;2023-04-25T04:49:59;95901.00;;;6.75;75.94
60479;BME280;46321;48.398;11.754;2023-04-25T04:52:24;95901.66;;;6.77;75.72
60479;BME280;46321;48.398;11.754;2023-04-25T04:54:49;95899.84;;;6.86;75.40
60479;BME280;46321;48.398;11.754;2023-04-25T04:57:15;95898.38;;;6.83;75.54
60479;BME280;46321;48.398;11.754;2023-04-25T04:59:41;95897.06;;;6.87;75.06
60479;BME280;46321;48.398;11.754;2023-04-25T05:02:06;95900.19;;;6.91;74.65
60479;BME280;46321;48.398;11.754;2023-04-25T05:04:32;95905.28;;;6.93;74.62
60479;BME280;46321;48.398;11.754;2023-04-25T05:06:57;95900.66;;;6.95;74.73
60479;BME280;46321;48.398;11.754;2023-04-25T05:09:22;95901.00;;;7.00;74.47
60479;BME280;46321;48.398;11.754;2023-04-25T05:11:51;95889.78;;;7.06;74.56
60479;BME280;46321;48.398;11.754;2023-04-25T05:14:16;95886.63;;;7.19;73.61
60479;BME280;46321;48.398;11.754;2023-04-25T05:16:42;95888.59;;;7.26;73.32
60479;BME280;46321;48.398;11.754;2023-04-25T05:19:08;95889.03;;;7.38;73.14
60479;BME280;46321;48.398;11.754;2023-04-25T05:21:33;95885.88;;;7.51;72.76
60479;BME280;46321;48.398;11.754;2023-04-25T05:23:59;95880.75;;;7.58;72.44
60479;BME280;46321;48.398;11.754;2023-04-25T05:26:24;95875.34;;;7.51;72.25
60479;BME280;46321;48.398;11.754;2023-04-25T05:28:50;95879.81;;;7.50;71.98
60479;BME280;46321;48.398;11.754;2023-04-25T05:31:16;95878.16;;;7.49;72.23
60479;BME280;46321;48.398;11.754;2023-04-25T05:33:41;95880.59;;;7.51;71.76
60479;BME280;46321;48.398;11.754;2023-04-25T05:36:07;95872.56;;;7.52;72.19
60479;BME280;46321;48.398;11.754;2023-04-25T05:38:32;95875.13;;;7.61;71.88
60479;BME280;46321;48.398;11.754;2023-04-25T05:40:57;95873.97;;;7.63;72.17
60479;BME280;46321;48.398;11.754;2023-04-25T05:43:23;95874.63;;;7.65;72.28
60479;BME280;46321;48.398;11.754;2023-04-25T05:45:48;95866.22;;;7.62;72.89
60479;BME280;46321;48.398;11.754;2023-04-25T05:48:14;95881.06;;;7.63;72.35
60479;BME280;46321;48.398;11.754;2023-04-25T05:50:39;95872.78;;;7.74;72.15
60479;BME280;46321;48.398;11.754;2023-04-25T05:53:04;95877.72;;;7.69;72.30
60479;BME280;46321;48.398;11.754;2023-04-25T05:55:30;95881.38;;;7.60;72.33
60479;BME280;46321;48.398;11.754;2023-04-25T05:57:56;95884.28;;;7.73;72.40
60479;BME280;46321;48.398;11.754;2023-04-25T06:00:21;95880.94;;;7.88;71.73
60479;BME280;46321;48.398;11.754;2023-04-25T06:02:47;95886.22;;;7.88;71.42
60479;BME280;46321;48.398;11.754;2023-04-25T06:05:13;95885.44;;;7.79;71.56
60479;BME280;46321;48.398;11.754;2023-04-25T06:07:38;95888.78;;;7.96;71.32
60479;BME280;46321;48.398;11.754;2023-04-25T06:10:04;95888.19;;;7.86;70.96
60479;BME280;46321;48.398;11.754;2023-04-25T06:12:32;95890.31;;;7.90;70.86
60479;BME280;46321;48.398;11.754;2023-04-25T06:14:58;95887.06;;;8.12;70.32
60479;BME280;46321;48.398;11.754;2023-04-25T06:17:23;95888.41;;;8.08;69.54
60479;BME280;46321;48.398;11.754;2023-04-25T06:19:48;95899.53;;;7.86;69.95
60479;BME280;46321;48.398;11.754;2023-04-25T06:22:13;95897.66;;;8.04;70.35
60479;BME280;46321;48.398;11.754;2023-04-25T06:24:39;95899.03;;;7.91;70.42
60479;BME280;46321;48.398;11.754;2023-04-25T06:27:04;95892.91;;;7.99;70.65
60479;BME280;46321;48.398;11.754;2023-04-25T06:29:30;95901.34;;;8.18;71.11
60479;BME280;46321;48.398;11.754;2023-04-25T06:31:55;95894.88;;;8.29;70.12
60479;BME280;46321;48.398;11.754;2023-04-25T06:34:20;95894.44;;;8.17;70.86
60479;BME280;46321;48.398;11.754;2023-04-25T06:36:45;95888.59;;;8.30;70.57
60479;BME280;46321;48.398;11.754;2023-04-25T06:39:11;95911.88;;;8.26;70.17
60479;BME280;46321;48.398;11.754;2023-04-25T06:41:37;95905.13;;;8.23;70.09
60479;BME280;46321;48.398;11.754;2023-04-25T06:44:02;95907.56;;;8.01;70.71
60479;BME280;46321;48.398;11.754;2023-04-25T06:46:27;95907.06;;;7.98;72.84
60479;BME280;46321;48.398;11.754;2023-04-25T06:48:52;95906.72;;;8.01;72.73
60479;BME280;46321;48.398;11.754;2023-04-25T06:51:18;95902.72;;;7.82;72.62
60479;BME280;46321;48.398;11.754;2023-04-25T06:53:43;95909.81;;;8.05;72.78
60479;BME280;46321;48.398;11.754;2023-04-25T06:56:08;95902.03;;;7.88;73.96
60479;BME280;46321;48.398;11.754;2023-04-25T06:58:33;95910.25;;;7.85;74.79
60479;BME280;46321;48.398;11.754;2023-04-25T07:00:59;95905.41;;;7.65;74.60
60479;BME280;46321;48.398;11.754;2023-04-25T07:03:24;95912.63;;;7.71;74.92
60479;BME280;46321;48.398;11.754;2023-04-25T07:05:50;95918.97;;;7.45;75.56
60479;BME280;46321;48.398;11.754;2023-04-25T07:08:16;95915.06;;;7.41;75.41
60479;BME280;46321;48.398;11.754;2023-04-25T07:10:44;95904.19;;;7.36;75.04
60479;BME280;46321;48.398;11.754;2023-04-25T07:16:12;95900.72;;;7.35;75.92
60479;BME280;46321;48.398;11.754;2023-04-25T07:18:37;95903.00;;;7.47;75.51
60479;BME280;46321;48.398;11.754;2023-04-25T07:21:02;95903.19;;;7.45;75.78
60479;BME280;46321;48.398;11.754;2023-04-25T07:23:28;95902.97;;;7.63;76.00
60479;BME280;46321;48.398;11.754;2023-04-25T07:25:53;95902.19;;;7.86;76.52
60479;BME280;46321;48.398;11.754;2023-04-25T07:28:18;95906.97;;;8.15;75.55
60479;BME280;46321;48.398;11.754;2023-04-25T07:30:44;95902.19;;;8.42;75.41
60479;BME280;46321;48.398;11.754;2023-04-25T07:33:09;95897.09;;;8.64;74.53
60479;BME280;46321;48.398;11.754;2023-04-25T07:35:34;95901.16;;;8.51;74.90
60479;BME280;46321;48.398;11.754;2023-04-25T07:38:01;95901.13;;;8.75;73.04
60479;BME280;46321;48.398;11.754;2023-04-25T07:40:26;95901.00;;;8.91;73.02
60479;BME280;46321;48.398;11.754;2023-04-25T07:42:51;95893.66;;;9.02;72.09
60479;BME280;46321;48.398;11.754;2023-04-25T07:45:17;95900.78;;;9.32;71.74
60479;BME280;46321;48.398;11.754;2023-04-25T07:47:42;95897.69;;;9.58;71.51
60479;BME280;46321;48.398;11.754;2023-04-25T07:50:08;95890.72;;;9.88;70.59
60479;BME280;46321;48.398;11.754;2023-04-25T07:52:33;95887.81;;;10.04;70.68
60479;BME280;46321;48.398;11.754;2023-04-25T07:54:59;95899.75;;;10.15;69.19
60479;BME280;46321;48.398;11.754;2023-04-25T07:57:25;95885.88;;;10.50;68.69
60479;BME280;46321;48.398;11.754;2023-04-25T07:59:50;95882.69;;;10.62;66.67
60479;BME280;46321;48.398;11.754;2023-04-25T08:02:15;95880.41;;;10.81;66.93
60479;BME280;46321;48.398;11.754;2023-04-25T08:04:41;95879.00;;;11.14;66.39
60479;BME280;46321;48.398;11.754;2023-04-25T08:07:06;95871.91;;;11.56;66.79
60479;BME280;46321;48.398;11.754;2023-04-25T08:09:31;95878.75;;;11.79;64.68
60479;BME280;46321;48.398;11.754;2023-04-25T08:12:01;95877.53;;;12.45;64.24
60479;BME280;46321;48.398;11.754;2023-04-25T08:14:27;95867.72;;;13.00;63.25
60479;BME280;46321;48.398;11.754;2023-04-25T08:16:54;95860.09;;;13.37;59.69
60479;BME280;46321;48.398;11.754;2023-04-25T08:19:22;95858.59;;;13.69;59.53
60479;BME280;46321;48.398;11.754;2023-04-25T08:21:47;95860.19;;;14.16;59.36
60479;BME280;46321;48.398;11.754;2023-04-25T08:24:12;95875.31;;;14.54;57.55
60479;BME280;46321;48.398;11.754;2023-04-25T08:26:38;95875.41;;;14.41;58.00
60479;BME280;46321;48.398;11.754;2023-04-25T08:29:04;95874.41;;;15.19;55.96
60479;BME280;46321;48.398;11.754;2023-04-25T08:31:30;95872.25;;;15.72;51.14
60479;BME280;46321;48.398;11.754;2023-04-25T08:33:55;95871.56;;;15.20;52.06
60479;BME280;46321;48.398;11.754;2023-04-25T08:36:21;95878.38;;;15.54;50.45
60479;BME280;46321;48.398;11.754;2023-04-25T08:38:46;95871.84;;;16.06;49.13
60479;BME280;46321;48.398;11.754;2023-04-25T08:41:11;95864.84;;;16.24;47.89
60479;BME280;46321;48.398;11.754;2023-04-25T08:43:37;95861.00;;;16.75;46.73
60479;BME280;46321;48.398;11.754;2023-04-25T08:46:07;95862.47;;;16.46;47.02
60479;BME280;46321;48.398;11.754;2023-04-25T08:48:33;95851.59;;;16.29;45.71
60479;BME280;46321;48.398;11.754;2023-04-25T08:51:01;95864.91;;;15.67;48.54
60479;BME280;46321;48.398;11.754;2023-04-25T08:53:32;95858.31;;;15.70;46.66
60479;BME280;46321;48.398;11.754;2023-04-25T08:55:59;95867.50;;;15.55;47.10
60479;BME280;46321;48.398;11.754;2023-04-25T08:58:25;95866.47;;;14.93;46.78
60479;BME280;46321;48.398;11.754;2023-04-25T09:00:51;95875.19;;;14.10;48.33
60479;BME280;46321;48.398;11.754;2023-04-25T09:03:17;95879.88;;;13.62;52.02
60479;BME280;46321;48.398;11.754;2023-04-25T09:05:42;95899.34;;;13.28;56.00
60479;BME280;46321;48.398;11.754;2023-04-25T09:08:08;95906.50;;;12.40;57.41
60479;BME280;46321;48.398;11.754;2023-04-25T09:10:33;95898.97;;;12.36;56.63
60479;BME280;46321;48.398;11.754;2023-04-25T09:13:11;95905.44;;;12.13;57.96
60479;BME280;46321;48.398;11.754;2023-04-25T09:15:49;95891.63;;;11.83;57.48
60479;BME280;46321;48.398;11.754;2023-04-25T09:18:28;95894.44;;;11.74;57.00
60479;BME280;46321;48.398;11.754;2023-04-25T09:21:05;95895.06;;;11.83;57.35
60479;BME280;46321;48.398;11.754;2023-04-25T09:23:38;95890.44;;;11.99;58.59
60479;BME280;46321;48.398;11.754;2023-04-25T09:26:06;95886.31;;;12.59;59.45
60479;BME280;46321;48.398;11.754;2023-04-25T09:28:32;95887.69;;;14.03;56.62
60479;BME280;46321;48.398;11.754;2023-04-25T09:30:57;95881.13;;;16.04;54.65
60479;BME280;46321;48.398;11.754;2023-04-25T09:33:33;95886.78;;;16.69;50.36
60479;BME280;46321;48.398;11.754;2023-04-25T09:36:08;95887.50;;;18.72;44.95
60479;BME280;46321;48.398;11.754;2023-04-25T09:38:43;95875.78;;;19.93;44.74
60479;BME280;46321;48.398;11.754;2023-04-25T09:41:10;95880.91;;;19.32;42.58
60479;BME280;46321;48.398;11.754;2023-04-25T09:43:36;95872.84;;;19.72;42.30
60479;BME280;46321;48.398;11.754;2023-04-25T09:46:01;95879.03;;;19.32;41.27
60479;BME280;46321;48.398;11.754;2023-04-25T09:48:36;95888.69;;;18.06;43.03
60479;BME280;46321;48.398;11.754;2023-04-25T09:51:13;95891.81;;;16.89;46.02
60479;BME280;46321;48.398;11.754;2023-04-25T09:53:44;95882.56;;;16.18;45.32
60479;BME280;46321;48.398;11.754;2023-04-25T09:56:12;95873.94;;;17.50;44.58
60479;BME280;46321;48.398;11.754;2023-04-25T09:58:39;95870.47;;;19.98;40.27
60479;BME280;46321;48.398;11.754;2023-04-25T10:01:08;95861.47;;;21.36;36.29
60479;BME280;46321;48.398;11.754;2023-04-25T10:03:35;95863.25;;;21.73;34.55
60479;BME280;46321;48.398;11.754;2023-04-25T10:06:07;95868.84;;;21.08;36.38
60479;BME280;46321;48.398;11.754;2023-04-25T10:08:34;95867.53;;;22.49;34.17
60479;BME280;46321;48.398;11.754;2023-04-25T10:11:05;95861.81;;;21.07;35.79
60479;BME280;46321;48.398;11.754;2023-04-25T10:13:32;95863.50;;;22.47;33.78
60479;BME280;46321;48.398;11.754;2023-04-25T10:15:59;95850.13;;;21.28;32.65
60479;BME280;46321;48.398;11.754;2023-04-25T10:18:26;95868.59;;;20.21;34.97
60479;BME280;46321;48.398;11.754;2023-04-25T10:20:54;95863.34;;;20.09;34.75
60479;BME280;46321;48.398;11.754;2023-04-25T10:23:20;95871.09;;;19.20;36.85
60479;BME280;46321;48.398;11.754;2023-04-25T10:25:46;95879.16;;;18.39;37.88
60479;BME280;46321;48.398;11.754;2023-04-25T10:28:11;95873.09;;;17.61;38.89
60479;BME280;46321;48.398;11.754;2023-04-25T10:30:36;95880.16;;;17.80;39.95
60479;BME280;46321;48.398;11.754;2023-04-25T10:33:16;95864.91;;;19.20;37.09
60479;BME280;46321;48.398;11.754;2023-04-25T10:35:44;95878.94;;;19.67;35.12
60479;BME280;46321;48.398;11.754;2023-04-25T10:38:13;95869.47;;;19.59;35.47
60479;BME280;46321;48.398;11.754;2023-04-25T10:43:33;95872.19;;;18.56;37.31
60479;BME280;46321;48.398;11.754;2023-04-25T10:46:01;95879.00;;;17.88;38.24
60479;BME280;46321;48.398;11.754;2023-04-25T10:48:29;95880.56;;;16.99;39.23
60479;BME280;46321;48.398;11.754;2023-04-25T10:51:28;95904.22;;;15.91;42.34
60479;BME280;46321;48.398;11.754;2023-04-25T10:54:04;95915.63;;;15.42;47.76
60479;BME280;46321;48.398;11.754;2023-04-25T10:59:08;95910.13;;;14.92;51.64
60479;BME280;46321;48.398;11.754;2023-04-25T11:01:42;95911.41;;;15.08;50.49
60479;BME280;46321;48.398;11.754;2023-04-25T11:04:25;95918.09;;;14.92;50.39
60479;BME280;46321;48.398;11.754;2023-04-25T11:09:47;95918.84;;;14.74;50.81
60479;BME280;46321;48.398;11.754;2023-04-25T11:12:13;95914.81;;;14.64;50.95
60479;BME280;46321;48.398;11.754;2023-04-25T11:14:39;95924.19;;;14.74;51.15
60479;BME280;46321;48.398;11.754;2023-04-25T11:17:04;95934.13;;;14.53;51.68
60479;BME280;46321;48.398;11.754;2023-04-25T11:19:30;95940.50;;;14.06;53.25
60479;BME280;46321;48.398;11.754;2023-04-25T11:21:57;95939.75;;;13.85;55.03
60479;BME280;46321;48.398;11.754;2023-04-25T11:24:40;95942.03;;;13.74;54.28
60479;BME280;46321;48.398;11.754;2023-04-25T11:27:06;95945.53;;;13.68;55.03
60479;BME280;46321;48.398;11.754;2023-04-25T11:29:33;95946.16;;;13.70;54.08
60479;BME280;46321;48.398;11.754;2023-04-25T11:31:59;95948.03;;;13.56;55.55
60479;BME280;46321;48.398;11.754;2023-04-25T11:34:29;95958.03;;;13.61;54.89
60479;BME280;46321;48.398;11.754;2023-04-25T11:36:58;95954.56;;;13.33;55.93
60479;BME280;46321;48.398;11.754;2023-04-25T11:39:25;95946.56;;;13.40;55.05
60479;BME280;46321;48.398;11.754;2023-04-25T11:41:51;95952.31;;;13.37;55.27
60479;BME280;46321;48.398;11.754;2023-04-25T11:44:17;95945.72;;;13.53;55.59
60479;BME280;46321;48.398;11.754;2023-04-25T11:46:44;95950.63;;;13.77;55.16
60479;BME280;46321;48.398;11.754;2023-04-25T11:49:11;95953.91;;;13.79;53.50
60479;BME280;46321;48.398;11.754;2023-04-25T11:51:43;95959.69;;;13.42;54.35
60479;BME280;46321;48.398;11.754;2023-04-25T11:54:09;95967.84;;;13.06;55.57
60479;BME280;46321;48.398;11.754;2023-04-25T11:56:34;95975.81;;;12.72;54.28
60479;BME280;46321;48.398;11.754;2023-04-25T11:59:01;95969.97;;;12.34;54.38
60479;BME280;46321;48.398;11.754;2023-04-25T12:01:32;95982.72;;;11.39;57.29
60479;BME280;46321;48.398;11.754;2023-04-25T12:03:58;95988.28;;;11.44;57.76
60479;BME280;46321;48.398;11.754;2023-04-25T12:06:27;96001.00;;;11.05;59.42
60479;BME280;46321;48.398;11.754;2023-04-25T12:09:03;96000.63;;;10.86;60.25
60479;BME280;46321;48.398;11.754;2023-04-25T12:11:32;95997.50;;;10.24;62.21
60479;BME280;46321;48.398;11.754;2023-04-25T12:14:04;96003.91;;;10.14;62.83
60479;BME280;46321;48.398;11.754;2023-04-25T12:16:45;96018.03;;;10.06;63.63
60479;BME280;46321;48.398;11.754;2023-04-25T12:19:14;96023.97;;;9.63;65.49
60479;BME280;46321;48.398;11.754;2023-04-25T12:21:40;96010.38;;;9.51;66.76
60479;BME280;46321;48.398;11.754;2023-04-25T12:24:23;96020.84;;;9.74;66.72
60479;BME280;46321;48.398;11.754;2023-04-25T12:26:57;96029.25;;;9.78;67.63
60479;BME280;46321;48.398;11.754;2023-04-25T12:29:24;96030.47;;;9.52;69.33
60479;BME280;46321;48.398;11.754;2023-04-25T12:31:51;96038.97;;;9.47;68.63
60479;BME280;46321;48.398;11.754;2023-04-25T12:34:20;96031.81;;;9.33;68.77
60479;BME280;46321;48.398;11.754;2023-04-25T12:36:45;96033.53;;;9.25;69.63
60479;BME280;46321;48.398;11.754;2023-04-25T12:39:23;96047.19;;;9.14;70.14
60479;BME280;46321;48.398;11.754;2023-04-25T12:41:52;96042.53;;;9.16;70.71
60479;BME280;46321;48.398;11.754;2023-04-25T12:44:19;96044.13;;;9.02;69.88
60479;BME280;46321;48.398;11.754;2023-04-25T12:46:44;96048.28;;;9.20;68.98
60479;BME280;46321;48.398;11.754;2023-04-25T12:49:10;96052.72;;;9.43;68.89
60479;BME280;46321;48.398;11.754;2023-04-25T12:51:35;96050.97;;;9.50;69.09
60479;BME280;46321;48.398;11.754;2023-04-25T12:54:02;96052.75;;;9.58;69.10
60479;BME280;46321;48.398;11.754;2023-04-25T12:56:28;96051.88;;;9.81;68.53
60479;BME280;46321;48.398;11.754;2023-04-25T12:58:53;96057.59;;;9.84;67.58
60479;BME280;46321;48.398;11.754;2023-04-25T13:01:20;96044.03;;;10.03;67.44
60479;BME280;46321;48.398;11.754;2023-04-25T13:03:45;96056.97;;;10.13;66.62
60479;BME280;46321;48.398;11.754;2023-04-25T13:06:11;96046.75;;;10.10;67.47